createdAt,value
2023-02-24T00:00:31.482Z,46.30
2023-02-24T00:03:05.641Z,42.70
2023-02-24T00:05:39.594Z,54.50
2023-02-24T00:08:07.740Z,49.80
2023-02-24T00:10:36.970Z,54.50
2023-02-24T00:13:05.439Z,46.40
2023-02-24T00:15:33.417Z,57.80
2023-02-24T00:18:06.609Z,45.20
2023-02-24T00:20:35.082Z,54.30
2023-02-24T00:23:03.461Z,60.70
2023-02-24T00:25:31.814Z,54.40
2023-02-24T00:28:01.098Z,52.10
2023-02-24T00:30:30.924Z,53.70
2023-02-24T00:33:00.858Z,49.80
2023-02-24T00:35:29.868Z,59.70
2023-02-24T00:37:58.140Z,52.40
2023-02-24T00:40:26.342Z,49.10
2023-02-24T00:42:54.569Z,52.80
2023-02-24T00:45:22.851Z,49.50
2023-02-24T00:47:50.962Z,50.90
2023-02-24T00:50:19.442Z,42.80
2023-02-24T00:52:49.649Z,51.50
2023-02-24T00:55:18.648Z,46.00
2023-02-24T00:57:50.194Z,50.80
2023-02-24T01:00:20.805Z,46.90
2023-02-24T01:02:48.992Z,46.40
2023-02-24T01:05:17.228Z,46.30
2023-02-24T01:07:45.430Z,45.30
2023-02-24T01:10:13.421Z,48.50
2023-02-24T01:12:51.345Z,46.00
2023-02-24T01:15:23.125Z,48.10
2023-02-24T01:17:52.163Z,51.20
2023-02-24T01:20:21.183Z,43.70
2023-02-24T01:22:53.399Z,51.40
2023-02-24T01:25:22.420Z,48.50
2023-02-24T01:27:52.283Z,43.80
2023-02-24T01:30:21.019Z,47.60
2023-02-24T01:32:50.391Z,53.40
2023-02-24T01:35:19.976Z,45.70
2023-02-24T01:37:49.921Z,57.10
2023-02-24T01:40:20.701Z,53.70
2023-02-24T01:42:50.186Z,52.30
2023-02-24T01:45:25.142Z,49.40
2023-02-24T01:47:57.195Z,46.90
2023-02-24T01:50:26.589Z,50.60
2023-02-24T01:52:59.842Z,55.40
2023-02-24T01:55:33.076Z,49.70
2023-02-24T01:58:05.497Z,51.00
2023-02-24T02:00:37.688Z,44.60
2023-02-24T02:03:13.473Z,47.80
2023-02-24T02:05:44.620Z,44.00
2023-02-24T02:08:13.978Z,47.10
2023-02-24T02:10:44.014Z,52.50
2023-02-24T02:13:19.872Z,49.00
2023-02-24T02:16:05.564Z,52.50
2023-02-24T02:18:55.725Z,47.20
2023-02-24T02:21:44.962Z,50.60
2023-02-24T02:24:49.906Z,51.30
2023-02-24T02:27:36.373Z,45.10
2023-02-24T02:30:40.032Z,41.20
2023-02-24T02:33:43.582Z,50.10
2023-02-24T02:36:18.931Z,44.30
2023-02-24T02:38:57.837Z,44.00
2023-02-24T02:41:31.252Z,42.10
2023-02-24T02:44:08.116Z,49.60
2023-02-24T02:46:41.126Z,53.30
2023-02-24T02:49:18.949Z,46.20
2023-02-24T02:51:53.218Z,44.70
2023-02-24T02:54:28.499Z,44.80
2023-02-24T02:57:04.641Z,49.60
2023-02-24T02:59:37.492Z,44.30
2023-02-24T03:02:14.315Z,52.80
2023-02-24T03:04:47.958Z,47.40
2023-02-24T03:07:19.166Z,46.20
2023-02-24T03:09:55.828Z,54.40
2023-02-24T03:12:26.407Z,54.40
2023-02-24T03:14:59.401Z,48.50
2023-02-24T03:17:30.526Z,44.20
2023-02-24T03:20:14.422Z,54.00
2023-02-24T03:22:51.402Z,56.60
2023-02-24T03:25:29.361Z,56.00
2023-02-24T03:28:05.388Z,56.30
2023-02-24T03:30:40.531Z,46.40
2023-02-24T03:33:16.845Z,56.00
2023-02-24T03:35:45.718Z,53.60
2023-02-24T03:38:14.615Z,53.80
2023-02-24T03:40:43.020Z,56.00
2023-02-24T03:43:19.094Z,64.50
2023-02-24T03:48:15.538Z,54.40
2023-02-24T03:50:44.927Z,59.00
2023-02-24T03:53:33.158Z,57.30
2023-02-24T03:56:22.166Z,56.40
2023-02-24T03:59:04.211Z,62.40
2023-02-24T04:01:41.823Z,58.00
2023-02-24T04:04:19.665Z,66.20
2023-02-24T04:06:59.546Z,66.90
2023-02-24T04:09:38.904Z,65.20
2023-02-24T04:12:18.160Z,65.40
2023-02-24T04:14:51.374Z,74.00
2023-02-24T04:17:22.326Z,59.00
2023-02-24T04:19:55.190Z,65.10
2023-02-24T04:22:26.642Z,63.00
2023-02-24T04:24:59.871Z,64.00
2023-02-24T04:27:28.940Z,64.30
2023-02-24T04:32:33.384Z,65.80
2023-02-24T04:35:09.385Z,65.10
2023-02-24T04:37:39.818Z,63.30
2023-02-24T04:40:11.262Z,65.70
2023-02-24T04:42:45.795Z,67.80
2023-02-24T04:45:16.304Z,73.00
2023-02-24T04:47:48.803Z,77.80
2023-02-24T04:50:22.509Z,68.60
2023-02-24T04:52:52.687Z,75.20
2023-02-24T04:55:22.107Z,70.60
2023-02-24T04:57:52.115Z,68.30
2023-02-24T05:00:22.303Z,67.00
2023-02-24T05:02:55.959Z,72.90
2023-02-24T05:05:25.481Z,66.90
2023-02-24T05:07:55.389Z,70.00
2023-02-24T05:10:27.502Z,70.10
2023-02-24T05:12:57.897Z,68.60
2023-02-24T05:15:30.754Z,61.30
2023-02-24T05:18:00.254Z,69.80
2023-02-24T05:20:46.918Z,68.30
2023-02-24T05:23:16.594Z,76.20
2023-02-24T05:25:45.161Z,78.20
2023-02-24T05:28:13.344Z,65.80
2023-02-24T05:30:41.461Z,73.20
2023-02-24T05:33:10.944Z,74.40
2023-02-24T05:35:42.743Z,76.80
2023-02-24T05:38:11.040Z,65.10
2023-02-24T05:40:45.868Z,69.40
2023-02-24T05:43:17.629Z,72.40
2023-02-24T05:45:46.152Z,61.00
2023-02-24T05:48:14.845Z,73.00
2023-02-24T05:50:51.669Z,79.60
2023-02-24T05:53:20.400Z,68.90
2023-02-24T05:55:48.735Z,66.50
2023-02-24T05:58:17.193Z,65.40
2023-02-24T06:00:46.212Z,73.00
2023-02-24T06:03:17.000Z,70.50
2023-02-24T06:05:55.036Z,67.10
2023-02-24T06:08:24.225Z,77.60
2023-02-24T06:10:53.189Z,74.00
2023-02-24T06:13:21.306Z,66.40
2023-02-24T06:15:54.483Z,79.30
2023-02-24T06:18:22.508Z,70.70
2023-02-24T06:20:50.583Z,65.20
2023-02-24T06:23:18.873Z,69.30
2023-02-24T06:25:46.802Z,69.90
2023-02-24T06:28:19.576Z,65.60
2023-02-24T06:30:47.760Z,68.50
2023-02-24T06:33:16.325Z,70.90
2023-02-24T06:35:44.404Z,58.70
2023-02-24T06:38:14.191Z,66.90
2023-02-24T06:40:47.027Z,68.40
2023-02-24T06:43:15.096Z,64.40
2023-02-24T06:45:44.803Z,67.60
2023-02-24T06:48:13.291Z,58.20
2023-02-24T06:50:42.967Z,66.90
2023-02-24T06:53:16.862Z,68.90
2023-02-24T06:55:48.225Z,65.30
2023-02-24T06:58:19.562Z,59.00
2023-02-24T07:00:56.245Z,56.20
2023-02-24T07:03:38.646Z,69.70
2023-02-24T07:06:19.762Z,62.20
2023-02-24T07:08:48.360Z,63.60
2023-02-24T07:11:18.435Z,60.20
2023-02-24T07:13:48.617Z,62.20
2023-02-24T07:16:19.253Z,61.50
2023-02-24T07:18:48.228Z,59.90
2023-02-24T07:21:20.497Z,61.50
2023-02-24T07:23:49.662Z,61.40
2023-02-24T07:26:22.601Z,61.30
2023-02-24T07:28:54.405Z,56.20
2023-02-24T07:31:25.318Z,61.10
2023-02-24T07:33:56.506Z,62.00
2023-02-24T07:36:29.336Z,59.50
2023-02-24T07:38:58.805Z,54.90
2023-02-24T07:41:28.455Z,57.70
2023-02-24T07:44:00.135Z,59.40
2023-02-24T07:46:31.745Z,58.20
2023-02-24T07:49:00.907Z,60.10
2023-02-24T07:51:30.313Z,54.80
2023-02-24T07:54:00.833Z,54.70
2023-02-24T07:56:30.573Z,58.10
2023-02-24T07:59:01.528Z,53.30
2023-02-24T08:01:38.217Z,50.70
2023-02-24T08:04:08.449Z,56.30
2023-02-24T08:06:39.022Z,48.50
2023-02-24T08:09:16.197Z,49.00
2023-02-24T08:11:46.894Z,55.20
2023-02-24T08:14:15.606Z,50.70
2023-02-24T08:16:45.735Z,51.90
2023-02-24T08:19:20.387Z,55.30
2023-02-24T08:21:50.195Z,46.60
2023-02-24T08:24:25.359Z,55.20
2023-02-24T08:27:04.647Z,51.40
2023-02-24T08:29:39.572Z,54.30
2023-02-24T08:32:09.030Z,46.10
2023-02-24T08:34:37.765Z,46.90
2023-02-24T08:37:06.286Z,46.10
2023-02-24T08:39:35.882Z,48.40
2023-02-24T08:42:04.235Z,48.30
2023-02-24T08:44:34.523Z,49.90
2023-02-24T08:47:04.624Z,43.90
2023-02-24T08:49:33.228Z,42.70
2023-02-24T08:52:02.012Z,45.30
2023-02-24T08:54:31.478Z,43.30
2023-02-24T08:57:07.756Z,46.80
2023-02-24T08:59:37.865Z,48.40
2023-02-24T09:02:18.049Z,46.10
2023-02-24T09:04:48.145Z,42.40
2023-02-24T09:07:18.347Z,46.10
2023-02-24T09:09:46.620Z,48.70
2023-02-24T09:12:21.451Z,53.40
2023-02-24T09:14:54.817Z,50.50
2023-02-24T09:17:40.530Z,51.80
2023-02-24T09:20:43.024Z,49.00
2023-02-24T09:23:19.440Z,43.90
2023-02-24T09:25:49.197Z,46.10
2023-02-24T09:28:19.837Z,43.70
2023-02-24T09:31:07.438Z,48.00
2023-02-24T09:33:38.478Z,50.60
2023-02-24T09:36:12.471Z,48.50
2023-02-24T09:39:00.539Z,52.80
2023-02-24T09:41:52.711Z,46.10
2023-02-24T09:44:32.764Z,45.10
2023-02-24T09:47:09.462Z,46.90
2023-02-24T09:49:47.824Z,39.40
2023-02-24T09:52:18.605Z,40.40
2023-02-24T09:55:14.293Z,40.50
2023-02-24T09:58:25.012Z,37.30
2023-02-24T10:01:20.293Z,33.80
2023-02-24T10:04:08.779Z,33.00
2023-02-24T10:06:48.703Z,36.00
2023-02-24T10:09:23.982Z,32.20
2023-02-24T10:11:55.028Z,36.40
2023-02-24T10:14:37.962Z,31.30
2023-02-24T10:17:30.023Z,28.90
2023-02-24T10:20:13.225Z,26.60
2023-02-24T10:22:50.042Z,25.50
2023-02-24T10:25:35.491Z,26.90
2023-02-24T10:28:15.660Z,31.00
2023-02-24T10:31:03.327Z,21.00
2023-02-24T10:33:38.306Z,21.80
2023-02-24T10:36:10.148Z,20.80
2023-02-24T10:38:44.905Z,20.60
2023-02-24T10:41:14.359Z,24.60
2023-02-24T10:43:55.429Z,24.10
2023-02-24T10:46:41.133Z,24.80
2023-02-24T10:49:15.650Z,26.90
2023-02-24T10:51:47.767Z,20.60
2023-02-24T10:54:54.324Z,24.70
2023-02-24T10:57:36.117Z,20.30
2023-02-24T11:00:50.883Z,20.40
2023-02-24T11:03:35.414Z,20.70
2023-02-24T11:06:19.570Z,18.10
2023-02-24T11:09:18.477Z,20.60
2023-02-24T11:12:05.953Z,20.00
2023-02-24T11:15:04.241Z,18.10
2023-02-24T11:17:32.812Z,17.70
2023-02-24T11:20:10.176Z,16.30
2023-02-24T11:22:41.604Z,23.00
2023-02-24T11:25:19.350Z,21.50
2023-02-24T11:27:48.206Z,19.10
2023-02-24T11:30:24.616Z,18.40
2023-02-24T11:33:16.710Z,22.80
2023-02-24T11:35:56.007Z,23.50
2023-02-24T11:38:36.408Z,21.70
2023-02-24T11:41:15.322Z,20.90
2023-02-24T11:43:55.809Z,19.50
2023-02-24T11:46:33.682Z,25.10
2023-02-24T11:49:06.545Z,21.60
2023-02-24T11:51:37.357Z,23.20
2023-02-24T11:54:10.551Z,21.00
2023-02-24T11:56:43.332Z,25.80
2023-02-24T11:59:17.094Z,21.20
2023-02-24T12:01:52.087Z,21.70
2023-02-24T12:04:24.516Z,23.30
2023-02-24T12:06:59.087Z,25.00
2023-02-24T12:09:33.483Z,20.90
2023-02-24T12:12:07.359Z,21.40
2023-02-24T12:14:40.704Z,28.30
2023-02-24T12:17:21.299Z,25.30
2023-02-24T12:20:05.322Z,28.70
2023-02-24T12:22:45.451Z,24.90
2023-02-24T12:25:16.584Z,21.50
2023-02-24T12:27:59.436Z,23.40
2023-02-24T12:30:48.085Z,24.20
2023-02-24T12:33:31.385Z,21.90
2023-02-24T12:36:12.178Z,21.70
2023-02-24T12:38:52.904Z,20.00
2023-02-24T12:41:39.375Z,23.60
2023-02-24T12:44:22.635Z,19.00
2023-02-24T12:47:03.280Z,19.50
2023-02-24T12:49:47.053Z,20.10
2023-02-24T12:52:20.149Z,21.20
2023-02-24T12:54:58.832Z,21.80
2023-02-24T12:57:33.247Z,18.40
2023-02-24T13:00:07.940Z,18.50
2023-02-24T13:02:48.746Z,22.00
2023-02-24T13:05:23.174Z,20.60
2023-02-24T13:08:09.159Z,17.70
2023-02-24T13:10:45.396Z,18.00
2023-02-24T13:13:21.952Z,16.80
2023-02-24T13:15:52.594Z,18.00
2023-02-24T13:18:29.658Z,20.00
2023-02-24T13:21:06.370Z,18.70
2023-02-24T13:23:36.569Z,17.90
2023-02-24T13:26:04.801Z,17.90
2023-02-24T13:28:35.588Z,19.20
2023-02-24T13:31:06.040Z,17.90
2023-02-24T13:33:38.855Z,16.70
2023-02-24T13:36:21.065Z,21.40
2023-02-24T13:38:50.912Z,22.60
2023-02-24T13:41:35.778Z,18.70
2023-02-24T13:44:22.330Z,16.80
2023-02-24T13:47:06.176Z,16.80
2023-02-24T13:49:42.563Z,18.20
2023-02-24T13:52:20.237Z,16.00
2023-02-24T13:55:03.268Z,17.40
2023-02-24T13:57:47.652Z,27.60
2023-02-24T14:00:26.464Z,19.40
2023-02-24T14:02:55.453Z,16.10
2023-02-24T14:05:27.899Z,19.70
2023-02-24T14:07:56.473Z,15.60
2023-02-24T14:10:26.262Z,20.10
2023-02-24T14:13:04.552Z,14.10
2023-02-24T14:15:34.432Z,18.80
2023-02-24T14:18:05.596Z,14.90
2023-02-24T14:20:36.869Z,17.60
2023-02-24T14:23:22.025Z,17.50
2023-02-24T14:25:54.609Z,17.40
2023-02-24T14:28:25.293Z,19.50
2023-02-24T14:30:58.743Z,19.10
2023-02-24T14:33:32.426Z,14.80
2023-02-24T14:36:01.583Z,16.30
2023-02-24T14:38:35.129Z,19.00
2023-02-24T14:41:05.238Z,19.30
2023-02-24T14:43:39.745Z,20.00
2023-02-24T14:46:07.948Z,24.70
2023-02-24T14:48:36.316Z,20.30
2023-02-24T14:51:09.224Z,20.50
2023-02-24T14:53:48.462Z,19.60
2023-02-24T14:56:17.536Z,22.20
2023-02-24T14:58:48.153Z,19.50
2023-02-24T15:01:27.348Z,18.00
2023-02-24T15:04:00.128Z,20.50
2023-02-24T15:06:31.900Z,16.60
2023-02-24T15:09:03.769Z,20.50
2023-02-24T15:11:32.773Z,21.10
2023-02-24T15:14:05.671Z,21.50
2023-02-24T15:16:39.103Z,18.10
2023-02-24T15:19:26.071Z,26.10
2023-02-24T15:21:54.886Z,19.00
2023-02-24T15:24:31.072Z,17.40
2023-02-24T15:27:19.707Z,21.20
2023-02-24T15:32:27.813Z,21.10
2023-02-24T15:34:56.091Z,17.60
2023-02-24T15:37:27.129Z,21.00
2023-02-24T15:40:05.430Z,20.80
2023-02-24T15:42:35.256Z,15.90
2023-02-24T15:45:05.270Z,17.80
2023-02-24T15:47:44.065Z,19.60
2023-02-24T15:50:13.620Z,18.60
2023-02-24T15:52:42.295Z,19.10
2023-02-24T15:55:15.644Z,19.00
2023-02-24T15:57:45.110Z,16.00
2023-02-24T16:00:20.025Z,17.80
2023-02-24T16:02:49.716Z,18.80
2023-02-24T16:05:17.865Z,15.90
2023-02-24T16:07:47.849Z,13.50
2023-02-24T16:10:19.856Z,17.90
2023-02-24T16:12:52.089Z,12.90
2023-02-24T16:15:25.340Z,11.60
2023-02-24T16:17:54.190Z,12.80
2023-02-24T16:20:30.780Z,12.80
2023-02-24T16:23:00.911Z,10.30
2023-02-24T16:25:33.239Z,11.70
2023-02-24T16:28:01.746Z,11.70
2023-02-24T16:30:30.801Z,11.60
2023-02-24T16:33:00.780Z,14.50
2023-02-24T16:35:29.248Z,16.30
2023-02-24T16:37:57.464Z,14.90
2023-02-24T16:40:29.508Z,13.00
2023-02-24T16:42:57.629Z,13.50
2023-02-24T16:45:28.865Z,16.80
2023-02-24T16:48:02.040Z,17.60
2023-02-24T16:50:33.737Z,13.90
2023-02-24T16:53:02.125Z,12.90
2023-02-24T16:55:30.288Z,11.30
2023-02-24T16:57:58.445Z,21.40
2023-02-24T17:00:26.840Z,11.60
2023-02-24T17:02:55.101Z,13.60
2023-02-24T17:05:25.773Z,16.60
2023-02-24T17:07:55.277Z,8.70
2023-02-24T17:10:24.773Z,15.20
2023-02-24T17:12:53.163Z,21.90
2023-02-24T17:15:25.157Z,15.90
2023-02-24T17:17:53.322Z,11.80
2023-02-24T17:20:21.441Z,14.50
2023-02-24T17:22:49.646Z,12.80
2023-02-24T17:25:19.441Z,11.60
2023-02-24T17:27:47.739Z,14.80
2023-02-24T17:30:18.819Z,14.70
2023-02-24T17:32:46.789Z,11.40
2023-02-24T17:35:15.288Z,16.70
2023-02-24T17:37:43.546Z,13.20
2023-02-24T17:40:13.588Z,12.70
2023-02-24T17:42:42.376Z,15.00
2023-02-24T17:45:13.421Z,30.70
2023-02-24T17:47:42.183Z,69.30
2023-02-24T17:50:12.885Z,25.70
2023-02-24T17:52:41.434Z,15.10
2023-02-24T17:55:17.310Z,15.90
2023-02-24T17:57:45.590Z,15.70
2023-02-24T18:00:15.419Z,15.50
2023-02-24T18:02:43.907Z,11.30
2023-02-24T18:05:14.835Z,17.80
2023-02-24T18:07:43.011Z,18.20
2023-02-24T18:10:14.633Z,10.80
2023-02-24T18:12:43.039Z,13.30
2023-02-24T18:15:38.838Z,16.00
2023-02-24T18:18:22.070Z,20.80
2023-02-24T18:20:51.024Z,18.80
2023-02-24T18:23:19.234Z,16.20
2023-02-24T18:25:47.526Z,28.70
2023-02-24T18:28:16.597Z,19.90
2023-02-24T18:30:54.091Z,17.60
2023-02-24T18:33:22.949Z,13.80
2023-02-24T18:35:58.416Z,16.10
2023-02-24T18:38:27.525Z,19.90
2023-02-24T18:41:00.645Z,23.20
2023-02-24T18:43:30.269Z,17.40
2023-02-24T18:45:59.745Z,19.60
2023-02-24T18:48:28.821Z,19.40
2023-02-24T18:50:58.387Z,26.40
2023-02-24T18:53:30.609Z,17.40
2023-02-24T18:56:03.168Z,18.10
2023-02-24T18:58:31.600Z,33.90
2023-02-24T19:01:00.335Z,46.50
2023-02-24T19:03:28.756Z,23.90
2023-02-24T19:05:56.911Z,21.00
2023-02-24T19:08:26.328Z,20.60
2023-02-24T19:10:54.794Z,22.10
2023-02-24T19:13:31.681Z,21.70
2023-02-24T19:17:16.494Z,21.70
2023-02-24T19:19:46.067Z,17.60
2023-02-24T19:22:14.391Z,22.00
2023-02-24T19:24:42.936Z,17.90
2023-02-24T19:27:11.601Z,20.50
2023-02-24T19:29:39.993Z,23.10
2023-02-24T19:32:08.164Z,25.30
2023-02-24T19:35:21.604Z,19.30
2023-02-24T19:38:14.826Z,17.50
2023-02-24T19:40:43.816Z,25.00
2023-02-24T19:43:50.435Z,19.40
2023-02-24T19:46:19.257Z,21.50
2023-02-24T19:48:47.987Z,29.30
2023-02-24T19:51:19.459Z,24.40
2023-02-24T19:54:13.234Z,22.80
2023-02-24T19:56:41.321Z,21.70
2023-02-24T19:59:10.939Z,27.70
2023-02-24T20:01:38.996Z,27.40
2023-02-24T20:04:08.195Z,24.80
2023-02-24T20:06:38.194Z,25.40
2023-02-24T20:09:08.677Z,19.20
2023-02-24T20:11:38.020Z,23.80
2023-02-24T20:14:07.500Z,25.00
2023-02-24T20:16:37.484Z,28.40
2023-02-24T20:19:06.984Z,34.60
2023-02-24T20:21:36.431Z,27.70
2023-02-24T20:24:06.833Z,37.40
2023-02-24T20:26:36.919Z,28.20
2023-02-24T20:29:05.381Z,27.70
2023-02-24T20:31:33.974Z,29.60
2023-02-24T20:34:03.847Z,28.30
2023-02-24T20:36:32.501Z,28.60
2023-02-24T20:39:00.677Z,33.50
2023-02-24T20:41:29.183Z,31.00
2023-02-24T20:43:57.186Z,26.60
2023-02-24T20:46:27.735Z,30.90
2023-02-24T20:48:58.139Z,37.10
2023-02-24T20:51:27.202Z,39.00
2023-02-24T20:53:58.081Z,36.90
2023-02-24T20:56:28.358Z,35.30
2023-02-24T20:59:00.904Z,31.10
2023-02-24T21:01:30.603Z,30.80
2023-02-24T21:03:59.649Z,33.00
2023-02-24T21:06:28.708Z,30.50
2023-02-24T21:08:57.088Z,34.00
2023-02-24T21:11:25.921Z,32.50
2023-02-24T21:13:54.048Z,24.50
2023-02-24T21:16:23.890Z,28.50
2023-02-24T21:18:52.497Z,32.60
2023-02-24T21:21:21.312Z,29.10
2023-02-24T21:23:50.744Z,27.60
2023-02-24T21:26:19.267Z,33.50
2023-02-24T21:28:47.358Z,30.60
2023-02-24T21:31:17.506Z,33.30
2023-02-24T21:33:51.657Z,35.00
2023-02-24T21:36:22.837Z,35.10
2023-02-24T21:38:51.886Z,27.50
2023-02-24T21:41:20.074Z,28.70
2023-02-24T21:44:03.269Z,28.40
2023-02-24T21:46:31.771Z,32.80
2023-02-24T21:49:00.381Z,30.10
2023-02-24T21:51:29.473Z,31.10
2023-02-24T21:53:58.499Z,27.00
2023-02-24T21:56:28.739Z,25.10
2023-02-24T21:59:01.039Z,25.00
2023-02-24T22:01:34.575Z,27.20
2023-02-24T22:04:17.762Z,25.80
2023-02-24T22:06:53.265Z,28.20
2023-02-24T22:09:22.242Z,34.80
2023-02-24T22:11:51.443Z,26.00
2023-02-24T22:14:20.802Z,27.10
2023-02-24T22:16:49.899Z,27.40
2023-02-24T22:19:24.466Z,31.10
2023-02-24T22:25:36.377Z,33.10
2023-02-24T22:28:11.362Z,33.90
2023-02-24T22:30:44.536Z,28.90
2023-02-24T22:33:35.092Z,33.20
2023-02-24T22:36:11.436Z,26.80
2023-02-24T22:38:48.499Z,29.30
2023-02-24T22:41:22.956Z,27.60
2023-02-24T22:43:57.334Z,34.90
2023-02-24T22:46:48.738Z,27.60
2023-02-24T22:49:19.039Z,26.50
2023-02-24T22:51:47.102Z,35.10
2023-02-24T22:54:20.896Z,31.20
2023-02-24T22:57:02.643Z,32.00
2023-02-24T22:59:31.260Z,27.90
2023-02-24T23:01:59.529Z,28.40
2023-02-24T23:04:49.474Z,28.30
2023-02-24T23:07:18.518Z,31.60
2023-02-24T23:10:14.891Z,34.40
2023-02-24T23:12:43.217Z,29.60
2023-02-24T23:15:13.188Z,30.50
2023-02-24T23:17:41.619Z,29.80
2023-02-24T23:20:12.149Z,27.30
2023-02-24T23:22:40.473Z,25.40
2023-02-24T23:25:10.448Z,31.00
2023-02-24T23:27:39.027Z,25.60
2023-02-24T23:30:11.658Z,27.30
2023-02-24T23:32:40.599Z,25.00
2023-02-24T23:35:10.859Z,28.80
2023-02-24T23:37:39.324Z,22.80
2023-02-24T23:40:10.766Z,23.40
2023-02-24T23:42:38.798Z,23.80
2023-02-24T23:45:09.397Z,25.20
2023-02-24T23:47:37.632Z,27.00
2023-02-24T23:50:07.045Z,23.60
2023-02-24T23:52:35.457Z,25.80
2023-02-24T23:55:06.169Z,26.60
2023-02-24T23:57:34.228Z,24.80
